sensor_id;sensor_type;location;lat;lon;timestamp;P1;durP1;ratioP1;P2;durP2;ratioP2
23617;SDS011;18207;32.078;34.818;2022-12-29T00:01:18;3.20;;;2.97;;
23617;SDS011;18207;32.078;34.818;2022-12-29T00:03:48;3.28;;;2.97;;
23617;SDS011;18207;32.078;34.818;2022-12-29T00:06:20;3.38;;;3.08;;
23617;SDS011;18207;32.078;34.818;2022-12-29T00:08:51;3.15;;;2.95;;
23617;SDS011;18207;32.078;34.818;2022-12-29T00:11:22;3.20;;;3.00;;
23617;SDS011;18207;32.078;34.818;2022-12-29T00:13:54;3.30;;;3.00;;
23617;SDS011;18207;32.078;34.818;2022-12-29T00:16:44;3.22;;;2.92;;
23617;SDS011;18207;32.078;34.818;2022-12-29T00:19:15;3.25;;;2.97;;
23617;SDS011;18207;32.078;34.818;2022-12-29T00:22:05;3.38;;;3.08;;
23617;SDS011;18207;32.078;34.818;2022-12-29T00:24:55;3.75;;;2.90;;
23617;SDS011;18207;32.078;34.818;2022-12-29T00:27:43;3.75;;;2.80;;
23617;SDS011;18207;32.078;34.818;2022-12-29T00:30:33;3.00;;;2.80;;
23617;SDS011;18207;32.078;34.818;2022-12-29T00:33:22;3.17;;;2.97;;
23617;SDS011;18207;32.078;34.818;2022-12-29T00:36:15;3.20;;;3.00;;
23617;SDS011;18207;32.078;34.818;2022-12-29T00:38:55;3.20;;;3.00;;
23617;SDS011;18207;32.078;34.818;2022-12-29T00:41:46;3.00;;;2.80;;
23617;SDS011;18207;32.078;34.818;2022-12-29T00:44:34;2.80;;;2.60;;
23617;SDS011;18207;32.078;34.818;2022-12-29T00:47:04;3.17;;;2.92;;
23617;SDS011;18207;32.078;34.818;2022-12-29T00:49:34;3.03;;;2.78;;
23617;SDS011;18207;32.078;34.818;2022-12-29T00:52:03;3.22;;;3.00;;
23617;SDS011;18207;32.078;34.818;2022-12-29T00:54:38;3.28;;;2.97;;
23617;SDS011;18207;32.078;34.818;2022-12-29T00:57:11;3.58;;;3.28;;
23617;SDS011;18207;32.078;34.818;2022-12-29T00:59:43;2.97;;;2.78;;
23617;SDS011;18207;32.078;34.818;2022-12-29T01:02:14;3.42;;;3.13;;
23617;SDS011;18207;32.078;34.818;2022-12-29T01:04:44;3.33;;;3.08;;
23617;SDS011;18207;32.078;34.818;2022-12-29T01:07:14;3.30;;;3.08;;
23617;SDS011;18207;32.078;34.818;2022-12-29T01:09:47;3.45;;;3.15;;
23617;SDS011;18207;32.078;34.818;2022-12-29T01:12:34;3.80;;;3.35;;
23617;SDS011;18207;32.078;34.818;2022-12-29T01:15:12;3.10;;;2.90;;
23617;SDS011;18207;32.078;34.818;2022-12-29T01:17:43;3.33;;;3.13;;
23617;SDS011;18207;32.078;34.818;2022-12-29T01:20:13;3.40;;;3.10;;
23617;SDS011;18207;32.078;34.818;2022-12-29T01:22:43;3.35;;;3.05;;
23617;SDS011;18207;32.078;34.818;2022-12-29T01:25:16;3.35;;;3.08;;
23617;SDS011;18207;32.078;34.818;2022-12-29T01:27:46;3.35;;;3.08;;
23617;SDS011;18207;32.078;34.818;2022-12-29T01:30:16;3.15;;;2.95;;
23617;SDS011;18207;32.078;34.818;2022-12-29T01:32:46;3.38;;;3.17;;
23617;SDS011;18207;32.078;34.818;2022-12-29T01:35:16;3.45;;;3.13;;
23617;SDS011;18207;32.078;34.818;2022-12-29T01:37:47;3.53;;;3.22;;
23617;SDS011;18207;32.078;34.818;2022-12-29T01:40:18;3.30;;;3.00;;
23617;SDS011;18207;32.078;34.818;2022-12-29T01:42:48;3.63;;;3.33;;
23617;SDS011;18207;32.078;34.818;2022-12-29T01:45:18;3.38;;;3.08;;
23617;SDS011;18207;32.078;34.818;2022-12-29T01:47:49;3.10;;;2.88;;
23617;SDS011;18207;32.078;34.818;2022-12-29T01:50:26;3.30;;;3.00;;
23617;SDS011;18207;32.078;34.818;2022-12-29T01:53:02;3.03;;;2.83;;
23617;SDS011;18207;32.078;34.818;2022-12-29T01:55:40;3.35;;;3.08;;
23617;SDS011;18207;32.078;34.818;2022-12-29T01:58:19;3.47;;;3.17;;
23617;SDS011;18207;32.078;34.818;2022-12-29T02:00:53;3.17;;;2.97;;
23617;SDS011;18207;32.078;34.818;2022-12-29T02:03:24;3.25;;;2.95;;
23617;SDS011;18207;32.078;34.818;2022-12-29T02:05:58;3.33;;;3.05;;
23617;SDS011;18207;32.078;34.818;2022-12-29T02:08:35;3.22;;;3.03;;
23617;SDS011;18207;32.078;34.818;2022-12-29T02:11:09;3.63;;;3.22;;
23617;SDS011;18207;32.078;34.818;2022-12-29T02:13:40;3.42;;;3.13;;
23617;SDS011;18207;32.078;34.818;2022-12-29T02:16:14;3.08;;;2.88;;
23617;SDS011;18207;32.078;34.818;2022-12-29T02:22:42;3.00;;;2.80;;
23617;SDS011;18207;32.078;34.818;2022-12-29T02:29:03;3.10;;;2.80;;
23617;SDS011;18207;32.078;34.818;2022-12-29T02:32:11;3.40;;;2.97;;
23617;SDS011;18207;32.078;34.818;2022-12-29T02:34:53;3.22;;;3.03;;
23617;SDS011;18207;32.078;34.818;2022-12-29T02:37:37;3.05;;;2.85;;
23617;SDS011;18207;32.078;34.818;2022-12-29T02:40:18;3.30;;;3.03;;
23617;SDS011;18207;32.078;34.818;2022-12-29T02:43:01;3.22;;;3.03;;
23617;SDS011;18207;32.078;34.818;2022-12-29T02:45:45;3.17;;;2.97;;
23617;SDS011;18207;32.078;34.818;2022-12-29T02:48:27;3.20;;;2.92;;
23617;SDS011;18207;32.078;34.818;2022-12-29T02:51:07;3.13;;;2.83;;
23617;SDS011;18207;32.078;34.818;2022-12-29T02:53:47;2.97;;;2.78;;
23617;SDS011;18207;32.078;34.818;2022-12-29T02:56:35;3.00;;;2.80;;
23617;SDS011;18207;32.078;34.818;2022-12-29T02:59:05;2.95;;;2.75;;
23617;SDS011;18207;32.078;34.818;2022-12-29T03:01:40;3.38;;;3.05;;
23617;SDS011;18207;32.078;34.818;2022-12-29T03:04:53;3.80;;;2.47;;
23617;SDS011;18207;32.078;34.818;2022-12-29T03:07:48;2.92;;;2.72;;
23617;SDS011;18207;32.078;34.818;2022-12-29T03:10:35;2.97;;;2.78;;
23617;SDS011;18207;32.078;34.818;2022-12-29T03:13:23;3.20;;;3.00;;
23617;SDS011;18207;32.078;34.818;2022-12-29T03:16:20;3.08;;;2.88;;
23617;SDS011;18207;32.078;34.818;2022-12-29T03:18:59;3.13;;;2.92;;
23617;SDS011;18207;32.078;34.818;2022-12-29T03:21:39;4.15;;;2.92;;
23617;SDS011;18207;32.078;34.818;2022-12-29T03:24:34;2.85;;;2.65;;
23617;SDS011;18207;32.078;34.818;2022-12-29T03:27:09;2.88;;;2.55;;
23617;SDS011;18207;32.078;34.818;2022-12-29T03:29:47;3.03;;;2.83;;
23617;SDS011;18207;32.078;34.818;2022-12-29T03:32:23;3.22;;;2.92;;
23617;SDS011;18207;32.078;34.818;2022-12-29T03:34:57;2.83;;;2.63;;
23617;SDS011;18207;32.078;34.818;2022-12-29T03:37:31;3.05;;;2.85;;
23617;SDS011;18207;32.078;34.818;2022-12-29T03:40:08;3.05;;;2.83;;
23617;SDS011;18207;32.078;34.818;2022-12-29T03:42:39;2.88;;;2.67;;
23617;SDS011;18207;32.078;34.818;2022-12-29T03:45:12;2.85;;;2.65;;
23617;SDS011;18207;32.078;34.818;2022-12-29T03:47:43;2.90;;;2.60;;
23617;SDS011;18207;32.078;34.818;2022-12-29T03:50:14;3.00;;;2.80;;
23617;SDS011;18207;32.078;34.818;2022-12-29T03:52:47;3.00;;;2.72;;
23617;SDS011;18207;32.078;34.818;2022-12-29T03:55:17;2.72;;;2.53;;
23617;SDS011;18207;32.078;34.818;2022-12-29T03:57:47;2.90;;;2.70;;
23617;SDS011;18207;32.078;34.818;2022-12-29T04:00:17;2.90;;;2.55;;
23617;SDS011;18207;32.078;34.818;2022-12-29T04:02:48;3.03;;;2.80;;
23617;SDS011;18207;32.078;34.818;2022-12-29T04:05:18;2.83;;;2.63;;
23617;SDS011;18207;32.078;34.818;2022-12-29T04:07:49;2.90;;;2.70;;
23617;SDS011;18207;32.078;34.818;2022-12-29T04:10:19;2.85;;;2.65;;
23617;SDS011;18207;32.078;34.818;2022-12-29T04:12:49;2.80;;;2.60;;
23617;SDS011;18207;32.078;34.818;2022-12-29T04:15:19;3.25;;;3.05;;
23617;SDS011;18207;32.078;34.818;2022-12-29T04:17:51;2.63;;;2.42;;
23617;SDS011;18207;32.078;34.818;2022-12-29T04:20:21;2.80;;;2.60;;
23617;SDS011;18207;32.078;34.818;2022-12-29T04:23:10;3.00;;;2.70;;
23617;SDS011;18207;32.078;34.818;2022-12-29T04:25:40;2.88;;;2.67;;
23617;SDS011;18207;32.078;34.818;2022-12-29T04:28:15;2.92;;;2.72;;
23617;SDS011;18207;32.078;34.818;2022-12-29T04:30:46;3.00;;;2.75;;
23617;SDS011;18207;32.078;34.818;2022-12-29T04:33:17;2.75;;;2.55;;
23617;SDS011;18207;32.078;34.818;2022-12-29T04:35:47;2.75;;;2.55;;
23617;SDS011;18207;32.078;34.818;2022-12-29T04:38:22;2.70;;;2.50;;
23617;SDS011;18207;32.078;34.818;2022-12-29T04:40:53;2.92;;;2.72;;
23617;SDS011;18207;32.078;34.818;2022-12-29T04:43:24;2.83;;;2.63;;
23617;SDS011;18207;32.078;34.818;2022-12-29T04:45:54;2.83;;;2.63;;
23617;SDS011;18207;32.078;34.818;2022-12-29T04:48:25;2.75;;;2.55;;
23617;SDS011;18207;32.078;34.818;2022-12-29T04:50:55;2.85;;;2.65;;
23617;SDS011;18207;32.078;34.818;2022-12-29T04:53:27;2.80;;;2.60;;
23617;SDS011;18207;32.078;34.818;2022-12-29T04:55:57;2.65;;;2.45;;
23617;SDS011;18207;32.078;34.818;2022-12-29T04:58:27;2.85;;;2.65;;
23617;SDS011;18207;32.078;34.818;2022-12-29T05:00:57;2.90;;;2.70;;
23617;SDS011;18207;32.078;34.818;2022-12-29T05:03:28;3.05;;;2.83;;
23617;SDS011;18207;32.078;34.818;2022-12-29T05:05:58;3.85;;;3.03;;
23617;SDS011;18207;32.078;34.818;2022-12-29T05:08:31;2.90;;;2.65;;
23617;SDS011;18207;32.078;34.818;2022-12-29T05:11:01;2.70;;;2.50;;
23617;SDS011;18207;32.078;34.818;2022-12-29T05:13:32;3.00;;;2.67;;
23617;SDS011;18207;32.078;34.818;2022-12-29T05:16:02;2.63;;;2.42;;
23617;SDS011;18207;32.078;34.818;2022-12-29T05:18:33;2.75;;;2.55;;
23617;SDS011;18207;32.078;34.818;2022-12-29T05:21:03;2.78;;;2.58;;
23617;SDS011;18207;32.078;34.818;2022-12-29T05:23:36;2.92;;;2.67;;
23617;SDS011;18207;32.078;34.818;2022-12-29T05:26:05;3.38;;;2.55;;
23617;SDS011;18207;32.078;34.818;2022-12-29T05:28:35;2.67;;;2.47;;
23617;SDS011;18207;32.078;34.818;2022-12-29T05:31:05;3.10;;;2.70;;
23617;SDS011;18207;32.078;34.818;2022-12-29T05:33:36;2.72;;;2.53;;
23617;SDS011;18207;32.078;34.818;2022-12-29T05:36:07;2.63;;;2.42;;
23617;SDS011;18207;32.078;34.818;2022-12-29T05:38:41;2.60;;;2.40;;
23617;SDS011;18207;32.078;34.818;2022-12-29T05:41:12;2.63;;;2.42;;
23617;SDS011;18207;32.078;34.818;2022-12-29T05:43:43;2.75;;;2.55;;
23617;SDS011;18207;32.078;34.818;2022-12-29T05:46:13;2.75;;;2.55;;
23617;SDS011;18207;32.078;34.818;2022-12-29T05:48:44;2.83;;;2.63;;
23617;SDS011;18207;32.078;34.818;2022-12-29T05:51:14;3.47;;;2.70;;
23617;SDS011;18207;32.078;34.818;2022-12-29T05:53:46;2.63;;;2.42;;
23617;SDS011;18207;32.078;34.818;2022-12-29T05:56:15;2.40;;;2.20;;
23617;SDS011;18207;32.078;34.818;2022-12-29T05:58:46;3.22;;;3.00;;
23617;SDS011;18207;32.078;34.818;2022-12-29T06:01:16;3.03;;;2.60;;
23617;SDS011;18207;32.078;34.818;2022-12-29T06:03:46;3.38;;;3.08;;
23617;SDS011;18207;32.078;34.818;2022-12-29T06:06:17;3.15;;;2.63;;
23617;SDS011;18207;32.078;34.818;2022-12-29T06:08:49;3.00;;;2.75;;
23617;SDS011;18207;32.078;34.818;2022-12-29T06:11:19;3.13;;;2.83;;
23617;SDS011;18207;32.078;34.818;2022-12-29T06:13:50;3.03;;;2.83;;
23617;SDS011;18207;32.078;34.818;2022-12-29T06:16:20;2.85;;;2.65;;
23617;SDS011;18207;32.078;34.818;2022-12-29T06:18:50;3.15;;;2.95;;
23617;SDS011;18207;32.078;34.818;2022-12-29T06:21:20;4.18;;;3.03;;
23617;SDS011;18207;32.078;34.818;2022-12-29T06:23:52;3.33;;;3.03;;
23617;SDS011;18207;32.078;34.818;2022-12-29T06:26:22;3.42;;;3.22;;
23617;SDS011;18207;32.078;34.818;2022-12-29T06:28:52;3.30;;;3.10;;
23617;SDS011;18207;32.078;34.818;2022-12-29T06:31:22;3.42;;;3.17;;
23617;SDS011;18207;32.078;34.818;2022-12-29T06:33:52;3.50;;;3.20;;
23617;SDS011;18207;32.078;34.818;2022-12-29T06:36:22;3.15;;;2.90;;
23617;SDS011;18207;32.078;34.818;2022-12-29T06:38:54;3.70;;;3.20;;
23617;SDS011;18207;32.078;34.818;2022-12-29T06:41:25;3.80;;;3.25;;
23617;SDS011;18207;32.078;34.818;2022-12-29T06:43:58;3.30;;;3.10;;
23617;SDS011;18207;32.078;34.818;2022-12-29T06:46:28;3.83;;;3.53;;
23617;SDS011;18207;32.078;34.818;2022-12-29T06:48:58;3.67;;;3.38;;
23617;SDS011;18207;32.078;34.818;2022-12-29T06:51:28;4.10;;;3.70;;
23617;SDS011;18207;32.078;34.818;2022-12-29T06:54:00;3.55;;;3.25;;
23617;SDS011;18207;32.078;34.818;2022-12-29T06:56:30;3.45;;;3.15;;
23617;SDS011;18207;32.078;34.818;2022-12-29T06:59:00;3.70;;;3.40;;
23617;SDS011;18207;32.078;34.818;2022-12-29T07:01:30;3.60;;;3.30;;
23617;SDS011;18207;32.078;34.818;2022-12-29T07:04:03;4.05;;;3.40;;
23617;SDS011;18207;32.078;34.818;2022-12-29T07:06:33;3.50;;;3.20;;
23617;SDS011;18207;32.078;34.818;2022-12-29T07:09:05;3.67;;;3.15;;
23617;SDS011;18207;32.078;34.818;2022-12-29T07:11:36;3.78;;;3.47;;
23617;SDS011;18207;32.078;34.818;2022-12-29T07:14:07;3.88;;;3.58;;
23617;SDS011;18207;32.078;34.818;2022-12-29T07:16:38;3.53;;;3.22;;
23617;SDS011;18207;32.078;34.818;2022-12-29T07:19:08;3.70;;;3.42;;
23617;SDS011;18207;32.078;34.818;2022-12-29T07:21:39;4.05;;;3.50;;
23617;SDS011;18207;32.078;34.818;2022-12-29T07:24:14;3.60;;;3.30;;
23617;SDS011;18207;32.078;34.818;2022-12-29T07:26:44;3.88;;;3.58;;
23617;SDS011;18207;32.078;34.818;2022-12-29T07:29:14;3.92;;;3.33;;
23617;SDS011;18207;32.078;34.818;2022-12-29T07:31:44;4.35;;;3.95;;
23617;SDS011;18207;32.078;34.818;2022-12-29T07:34:14;4.03;;;3.63;;
23617;SDS011;18207;32.078;34.818;2022-12-29T07:36:44;4.35;;;3.65;;
23617;SDS011;18207;32.078;34.818;2022-12-29T07:39:16;4.15;;;3.65;;
23617;SDS011;18207;32.078;34.818;2022-12-29T07:41:46;3.83;;;3.53;;
23617;SDS011;18207;32.078;34.818;2022-12-29T07:44:16;3.45;;;3.25;;
23617;SDS011;18207;32.078;34.818;2022-12-29T07:46:47;3.42;;;3.13;;
23617;SDS011;18207;32.078;34.818;2022-12-29T07:49:22;3.50;;;3.20;;
23617;SDS011;18207;32.078;34.818;2022-12-29T07:51:53;3.75;;;3.45;;
23617;SDS011;18207;32.078;34.818;2022-12-29T07:54:24;3.53;;;3.22;;
23617;SDS011;18207;32.078;34.818;2022-12-29T07:56:54;3.30;;;3.00;;
23617;SDS011;18207;32.078;34.818;2022-12-29T07:59:27;3.42;;;3.13;;
23617;SDS011;18207;32.078;34.818;2022-12-29T08:01:57;3.55;;;3.28;;
23617;SDS011;18207;32.078;34.818;2022-12-29T08:04:27;3.17;;;2.88;;
23617;SDS011;18207;32.078;34.818;2022-12-29T08:06:58;3.42;;;2.97;;
23617;SDS011;18207;32.078;34.818;2022-12-29T08:09:30;3.08;;;2.88;;
23617;SDS011;18207;32.078;34.818;2022-12-29T08:12:01;3.13;;;2.88;;
23617;SDS011;18207;32.078;34.818;2022-12-29T08:14:31;2.83;;;2.63;;
23617;SDS011;18207;32.078;34.818;2022-12-29T08:17:02;2.85;;;2.65;;
23617;SDS011;18207;32.078;34.818;2022-12-29T08:19:32;3.00;;;2.80;;
23617;SDS011;18207;32.078;34.818;2022-12-29T08:22:02;2.60;;;2.50;;
23617;SDS011;18207;32.078;34.818;2022-12-29T08:24:35;3.05;;;2.70;;
23617;SDS011;18207;32.078;34.818;2022-12-29T08:27:06;2.97;;;2.78;;
23617;SDS011;18207;32.078;34.818;2022-12-29T08:29:46;2.53;;;2.42;;
23617;SDS011;18207;32.078;34.818;2022-12-29T08:32:16;3.50;;;2.67;;
23617;SDS011;18207;32.078;34.818;2022-12-29T08:34:46;2.75;;;2.55;;
23617;SDS011;18207;32.078;34.818;2022-12-29T08:37:17;3.13;;;2.67;;
23617;SDS011;18207;32.078;34.818;2022-12-29T08:39:58;2.63;;;2.42;;
23617;SDS011;18207;32.078;34.818;2022-12-29T08:42:30;3.47;;;2.40;;
23617;SDS011;18207;32.078;34.818;2022-12-29T08:45:00;2.28;;;2.08;;
23617;SDS011;18207;32.078;34.818;2022-12-29T08:47:31;2.15;;;2.05;;
23617;SDS011;18207;32.078;34.818;2022-12-29T08:50:02;2.60;;;2.40;;
23617;SDS011;18207;32.078;34.818;2022-12-29T08:52:33;2.80;;;2.50;;
23617;SDS011;18207;32.078;34.818;2022-12-29T08:55:05;2.67;;;2.47;;
23617;SDS011;18207;32.078;34.818;2022-12-29T08:57:36;3.17;;;2.83;;
23617;SDS011;18207;32.078;34.818;2022-12-29T09:00:07;2.33;;;2.22;;
23617;SDS011;18207;32.078;34.818;2022-12-29T09:02:39;2.88;;;2.67;;
23617;SDS011;18207;32.078;34.818;2022-12-29T09:05:09;3.63;;;2.50;;
23617;SDS011;18207;32.078;34.818;2022-12-29T09:07:39;2.83;;;2.63;;
23617;SDS011;18207;32.078;34.818;2022-12-29T09:10:11;2.63;;;2.42;;
23617;SDS011;18207;32.078;34.818;2022-12-29T09:12:41;2.85;;;2.65;;
23617;SDS011;18207;32.078;34.818;2022-12-29T09:15:12;2.88;;;2.67;;
23617;SDS011;18207;32.078;34.818;2022-12-29T09:17:42;2.90;;;2.63;;
23617;SDS011;18207;32.078;34.818;2022-12-29T09:20:13;2.58;;;2.38;;
23617;SDS011;18207;32.078;34.818;2022-12-29T09:22:45;2.67;;;2.47;;
23617;SDS011;18207;32.078;34.818;2022-12-29T09:25:18;2.55;;;2.38;;
23617;SDS011;18207;32.078;34.818;2022-12-29T09:27:51;3.00;;;2.67;;
23617;SDS011;18207;32.078;34.818;2022-12-29T09:30:22;2.60;;;2.40;;
23617;SDS011;18207;32.078;34.818;2022-12-29T09:32:53;2.90;;;2.70;;
23617;SDS011;18207;32.078;34.818;2022-12-29T09:35:23;2.63;;;2.42;;
23617;SDS011;18207;32.078;34.818;2022-12-29T09:37:53;2.90;;;2.70;;
23617;SDS011;18207;32.078;34.818;2022-12-29T09:40:27;2.67;;;2.47;;
23617;SDS011;18207;32.078;34.818;2022-12-29T09:46:14;2.60;;;2.50;;
23617;SDS011;18207;32.078;34.818;2022-12-29T09:48:55;2.67;;;2.47;;
23617;SDS011;18207;32.078;34.818;2022-12-29T09:51:42;2.38;;;2.28;;
23617;SDS011;18207;32.078;34.818;2022-12-29T09:54:23;2.42;;;2.22;;
23617;SDS011;18207;32.078;34.818;2022-12-29T09:57:25;2.28;;;2.17;;
23617;SDS011;18207;32.078;34.818;2022-12-29T10:00:05;2.40;;;2.30;;
23617;SDS011;18207;32.078;34.818;2022-12-29T10:02:43;2.78;;;2.58;;
23617;SDS011;18207;32.078;34.818;2022-12-29T10:05:20;2.63;;;2.47;;
23617;SDS011;18207;32.078;34.818;2022-12-29T10:08:10;2.33;;;2.22;;
23617;SDS011;18207;32.078;34.818;2022-12-29T10:10:54;2.65;;;2.45;;
23617;SDS011;18207;32.078;34.818;2022-12-29T10:13:36;2.50;;;2.40;;
23617;SDS011;18207;32.078;34.818;2022-12-29T10:16:25;2.15;;;2.05;;
23617;SDS011;18207;32.078;34.818;2022-12-29T10:19:18;2.78;;;2.58;;
23617;SDS011;18207;32.078;34.818;2022-12-29T10:22:15;2.60;;;2.40;;
23617;SDS011;18207;32.078;34.818;2022-12-29T10:25:02;2.35;;;2.15;;
23617;SDS011;18207;32.078;34.818;2022-12-29T10:27:47;2.38;;;2.28;;
23617;SDS011;18207;32.078;34.818;2022-12-29T10:30:21;2.30;;;2.20;;
23617;SDS011;18207;32.078;34.818;2022-12-29T10:32:53;2.65;;;2.45;;
23617;SDS011;18207;32.078;34.818;2022-12-29T10:35:29;4.63;;;2.58;;
23617;SDS011;18207;32.078;34.818;2022-12-29T10:38:10;3.10;;;2.55;;
23617;SDS011;18207;32.078;34.818;2022-12-29T10:40:51;3.15;;;2.70;;
23617;SDS011;18207;32.078;34.818;2022-12-29T10:43:29;2.88;;;2.65;;
23617;SDS011;18207;32.078;34.818;2022-12-29T10:46:09;3.13;;;2.92;;
23617;SDS011;18207;32.078;34.818;2022-12-29T10:48:44;3.13;;;2.92;;
23617;SDS011;18207;32.078;34.818;2022-12-29T10:51:17;3.28;;;2.97;;
23617;SDS011;18207;32.078;34.818;2022-12-29T10:53:54;3.05;;;2.85;;
23617;SDS011;18207;32.078;34.818;2022-12-29T10:56:33;2.70;;;2.55;;
23617;SDS011;18207;32.078;34.818;2022-12-29T10:59:13;3.03;;;2.83;;
23617;SDS011;18207;32.078;34.818;2022-12-29T11:01:52;3.17;;;2.88;;
23617;SDS011;18207;32.078;34.818;2022-12-29T11:04:45;2.80;;;2.60;;
23617;SDS011;18207;32.078;34.818;2022-12-29T11:07:23;3.03;;;2.67;;
23617;SDS011;18207;32.078;34.818;2022-12-29T11:09:54;3.45;;;3.15;;
23617;SDS011;18207;32.078;34.818;2022-12-29T11:12:54;3.13;;;2.88;;
23617;SDS011;18207;32.078;34.818;2022-12-29T11:15:26;3.50;;;2.95;;
23617;SDS011;18207;32.078;34.818;2022-12-29T11:18:18;2.65;;;2.45;;
23617;SDS011;18207;32.078;34.818;2022-12-29T11:20:52;3.03;;;2.72;;
23617;SDS011;18207;32.078;34.818;2022-12-29T11:23:30;3.20;;;2.90;;
23617;SDS011;18207;32.078;34.818;2022-12-29T11:26:06;3.25;;;2.95;;
23617;SDS011;18207;32.078;34.818;2022-12-29T11:28:44;3.40;;;3.10;;
23617;SDS011;18207;32.078;34.818;2022-12-29T11:31:36;3.05;;;2.85;;
23617;SDS011;18207;32.078;34.818;2022-12-29T11:34:16;4.28;;;3.20;;
23617;SDS011;18207;32.078;34.818;2022-12-29T11:36:53;3.05;;;2.85;;
23617;SDS011;18207;32.078;34.818;2022-12-29T11:39:30;3.13;;;2.92;;
23617;SDS011;18207;32.078;34.818;2022-12-29T11:42:12;3.30;;;3.05;;
23617;SDS011;18207;32.078;34.818;2022-12-29T11:44:45;3.15;;;2.95;;
23617;SDS011;18207;32.078;34.818;2022-12-29T11:47:23;3.60;;;3.30;;
23617;SDS011;18207;32.078;34.818;2022-12-29T11:50:02;3.42;;;3.22;;
23617;SDS011;18207;32.078;34.818;2022-12-29T11:52:36;3.45;;;3.15;;
23617;SDS011;18207;32.078;34.818;2022-12-29T11:55:16;3.42;;;3.13;;
23617;SDS011;18207;32.078;34.818;2022-12-29T11:57:49;3.72;;;3.42;;
23617;SDS011;18207;32.078;34.818;2022-12-29T12:00:24;3.60;;;3.30;;
23617;SDS011;18207;32.078;34.818;2022-12-29T12:02:58;3.40;;;3.20;;
23617;SDS011;18207;32.078;34.818;2022-12-29T12:05:37;3.80;;;3.50;;
23617;SDS011;18207;32.078;34.818;2022-12-29T12:08:20;3.35;;;3.15;;
23617;SDS011;18207;32.078;34.818;2022-12-29T12:11:06;3.70;;;3.13;;
23617;SDS011;18207;32.078;34.818;2022-12-29T12:13:43;3.15;;;2.95;;
23617;SDS011;18207;32.078;34.818;2022-12-29T12:16:28;3.38;;;3.17;;
23617;SDS011;18207;32.078;34.818;2022-12-29T12:19:11;3.53;;;3.22;;
23617;SDS011;18207;32.078;34.818;2022-12-29T12:21:54;3.60;;;3.30;;
23617;SDS011;18207;32.078;34.818;2022-12-29T12:24:37;3.38;;;3.17;;
23617;SDS011;18207;32.078;34.818;2022-12-29T12:27:18;3.25;;;2.95;;
23617;SDS011;18207;32.078;34.818;2022-12-29T12:29:56;3.63;;;3.33;;
23617;SDS011;18207;32.078;34.818;2022-12-29T12:32:35;3.42;;;3.22;;
23617;SDS011;18207;32.078;34.818;2022-12-29T12:35:16;3.60;;;3.30;;
23617;SDS011;18207;32.078;34.818;2022-12-29T12:38:08;3.40;;;3.10;;
23617;SDS011;18207;32.078;34.818;2022-12-29T12:40:58;3.35;;;3.15;;
23617;SDS011;18207;32.078;34.818;2022-12-29T12:43:45;3.53;;;3.25;;
23617;SDS011;18207;32.078;34.818;2022-12-29T12:46:33;3.72;;;3.42;;
23617;SDS011;18207;32.078;34.818;2022-12-29T12:56:19;3.33;;;3.13;;
23617;SDS011;18207;32.078;34.818;2022-12-29T12:59:16;3.13;;;2.92;;
23617;SDS011;18207;32.078;34.818;2022-12-29T13:02:09;3.55;;;3.25;;
23617;SDS011;18207;32.078;34.818;2022-12-29T13:04:59;3.65;;;3.45;;
23617;SDS011;18207;32.078;34.818;2022-12-29T13:08:03;3.47;;;3.17;;
23617;SDS011;18207;32.078;34.818;2022-12-29T13:11:01;3.70;;;3.40;;
23617;SDS011;18207;32.078;34.818;2022-12-29T13:13:53;3.88;;;3.45;;
23617;SDS011;18207;32.078;34.818;2022-12-29T13:16:45;3.97;;;3.67;;
23617;SDS011;18207;32.078;34.818;2022-12-29T13:19:28;4.20;;;3.90;;
23617;SDS011;18207;32.078;34.818;2022-12-29T13:22:11;4.00;;;3.70;;
23617;SDS011;18207;32.078;34.818;2022-12-29T13:24:52;4.05;;;3.72;;
23617;SDS011;18207;32.078;34.818;2022-12-29T13:27:53;4.07;;;3.78;;
23617;SDS011;18207;32.078;34.818;2022-12-29T13:30:34;3.97;;;3.67;;
23617;SDS011;18207;32.078;34.818;2022-12-29T13:33:21;4.32;;;3.97;;
23617;SDS011;18207;32.078;34.818;2022-12-29T13:36:04;3.83;;;3.53;;
23617;SDS011;18207;32.078;34.818;2022-12-29T13:38:42;3.78;;;3.47;;
23617;SDS011;18207;32.078;34.818;2022-12-29T13:41:19;4.40;;;4.07;;
23617;SDS011;18207;32.078;34.818;2022-12-29T13:44:01;4.25;;;3.92;;
23617;SDS011;18207;32.078;34.818;2022-12-29T13:46:36;3.92;;;3.63;;
23617;SDS011;18207;32.078;34.818;2022-12-29T13:49:12;4.18;;;3.88;;
23617;SDS011;18207;32.078;34.818;2022-12-29T13:51:48;4.18;;;3.88;;
23617;SDS011;18207;32.078;34.818;2022-12-29T13:54:24;4.07;;;3.78;;
23617;SDS011;18207;32.078;34.818;2022-12-29T13:57:06;4.30;;;3.90;;
23617;SDS011;18207;32.078;34.818;2022-12-29T13:59:57;3.67;;;3.38;;
23617;SDS011;18207;32.078;34.818;2022-12-29T14:02:42;4.43;;;4.03;;
23617;SDS011;18207;32.078;34.818;2022-12-29T14:05:38;3.60;;;3.40;;
23617;SDS011;18207;32.078;34.818;2022-12-29T14:08:13;3.72;;;3.38;;
23617;SDS011;18207;32.078;34.818;2022-12-29T14:10:47;4.20;;;3.70;;
23617;SDS011;18207;32.078;34.818;2022-12-29T14:13:22;3.72;;;3.42;;
23617;SDS011;18207;32.078;34.818;2022-12-29T14:15:56;4.00;;;3.70;;
23617;SDS011;18207;32.078;34.818;2022-12-29T14:18:28;3.88;;;3.58;;
23617;SDS011;18207;32.078;34.818;2022-12-29T14:21:04;3.72;;;3.42;;
23617;SDS011;18207;32.078;34.818;2022-12-29T14:23:47;3.90;;;3.60;;
23617;SDS011;18207;32.078;34.818;2022-12-29T14:26:34;3.63;;;3.33;;
23617;SDS011;18207;32.078;34.818;2022-12-29T14:35:37;3.40;;;3.20;;
23617;SDS011;18207;32.078;34.818;2022-12-29T14:38:14;3.55;;;3.25;;
23617;SDS011;18207;32.078;34.818;2022-12-29T14:40:50;3.58;;;3.28;;
23617;SDS011;18207;32.078;34.818;2022-12-29T14:43:25;3.95;;;3.63;;
23617;SDS011;18207;32.078;34.818;2022-12-29T14:45:58;5.18;;;3.47;;
23617;SDS011;18207;32.078;34.818;2022-12-29T14:48:42;3.28;;;3.08;;
23617;SDS011;18207;32.078;34.818;2022-12-29T14:51:20;3.42;;;3.20;;
23617;SDS011;18207;32.078;34.818;2022-12-29T14:57:19;3.42;;;3.13;;
23617;SDS011;18207;32.078;34.818;2022-12-29T15:00:18;3.25;;;3.05;;
23617;SDS011;18207;32.078;34.818;2022-12-29T15:02:54;3.70;;;3.40;;
23617;SDS011;18207;32.078;34.818;2022-12-29T15:05:37;3.17;;;2.97;;
23617;SDS011;18207;32.078;34.818;2022-12-29T15:08:16;3.40;;;3.10;;
23617;SDS011;18207;32.078;34.818;2022-12-29T15:10:52;2.80;;;2.60;;
23617;SDS011;18207;32.078;34.818;2022-12-29T15:13:33;3.08;;;2.88;;
23617;SDS011;18207;32.078;34.818;2022-12-29T15:16:20;4.53;;;3.10;;
23617;SDS011;18207;32.078;34.818;2022-12-29T15:18:53;3.80;;;3.00;;
23617;SDS011;18207;32.078;34.818;2022-12-29T15:21:27;3.30;;;3.00;;
23617;SDS011;18207;32.078;34.818;2022-12-29T15:24:00;2.80;;;2.60;;
23617;SDS011;18207;32.078;34.818;2022-12-29T15:26:36;2.83;;;2.63;;
23617;SDS011;18207;32.078;34.818;2022-12-29T15:32:10;2.50;;;2.30;;
23617;SDS011;18207;32.078;34.818;2022-12-29T15:34:51;2.45;;;2.25;;
23617;SDS011;18207;32.078;34.818;2022-12-29T15:37:27;2.58;;;2.38;;
23617;SDS011;18207;32.078;34.818;2022-12-29T15:40:03;2.83;;;2.47;;
23617;SDS011;18207;32.078;34.818;2022-12-29T15:42:54;2.50;;;2.30;;
23617;SDS011;18207;32.078;34.818;2022-12-29T15:46:12;2.38;;;2.17;;
23617;SDS011;18207;32.078;34.818;2022-12-29T15:48:43;2.05;;;1.95;;
23617;SDS011;18207;32.078;34.818;2022-12-29T15:51:16;2.35;;;2.13;;
23617;SDS011;18207;32.078;34.818;2022-12-29T15:53:53;2.30;;;2.05;;
23617;SDS011;18207;32.078;34.818;2022-12-29T15:56:24;2.33;;;2.05;;
23617;SDS011;18207;32.078;34.818;2022-12-29T15:58:59;2.13;;;1.92;;